Las Vegas, Nevada (DRI) Weather observations

Data are for observation ending at time listed.
 Day   Time    Ave.   Ave.  Ave.  Vector   Max.   Stn.    Total    Solar   Ave.  
  of    of     Air    Rel.  Wind   Wind    Wind   Baro.  Precip.   Rad.    Soil  
Year   Day     Temp.  Hum.  Speed  Dir.    Gust   Pres.                    Temp. 
2026   (PST)    F      %     mph   deg.    mph     mb.     in.     W/m2     F   
------------------------------------------------------------------------------
 244   17:10   95.0    13    5.1   215     14.5   938.4    0.00     178    102.1
 244   17:20   94.5    13    5.7   191     14.9   938.3    0.00     147    101.8
 244   17:30   93.9    13    5.9   193     13.4   938.3    0.00     118    101.6
 244   17:40   93.1    13    5.4   200     16.6   938.3    0.00      49    101.3
 244   17:50   92.3    14    5.4   182     14.5   938.2    0.00      16    101.0
 244   18:00   92.2    13    5.6   206     16.0   938.2    0.00      10    100.6
 244   18:10   91.9    14    5.5   190     12.3   938.1    0.00       5    100.3
 244   18:20   91.7    14    4.5   195      9.1   938.0    0.00       2    100.0
 244   18:30   91.5    14    4.3   192      8.4   938.1    0.00       1    99.8
 244   18:40   91.5    14    4.9   197     11.2   938.2    0.00       0    99.5
 244   18:50   91.4    14    4.9   193      9.3   938.3    0.00       0    99.2
 244   19:00   91.1    14    4.2   183     11.5   938.3    0.00       0    98.9
 244   19:10   90.9    14    4.2   186      8.0   938.4    0.00       0    98.7
 244   19:20   90.7    14    4.6   182     10.7   938.4    0.00       0    98.5
 244   19:30   90.5    14    4.0   184      9.0   938.5    0.00       0    98.2
 244   19:40   90.2    14    4.1   180      9.5   938.7    0.00       0    98.0
 244   19:50   89.8    14    3.4   182      6.9   938.8    0.00       0    97.8
 244   20:00   89.3    14    2.9   179      7.0   939.0    0.00       0    97.6
 244   20:10   88.9    15    2.2   178      3.8   939.1    0.00       0    97.4
 244   20:20   88.4    14    2.1   179      4.0   939.3    0.00       0    97.2
 244   20:30   88.3    14    2.0   184      3.9   939.5    0.00       0    97.0
 244   20:40   88.4    14    3.2   188      8.0   939.7    0.00       0    96.7
 244   20:50   88.2    12    2.0   189      6.6   939.8    0.00       0    96.5
 244   21:00   87.6    12    2.0   177      7.2   939.9    0.00       0    96.3
 244   21:10   87.2    12    2.0   197      6.4   940.0    0.00       0    96.1
 244   21:20   86.8    12    2.5   178      7.5   940.1    0.00       0    95.9
 244   21:30   86.6    12    4.9   196     12.9   940.1    0.00       0    95.7
 244   21:40   86.6    12    4.4   196     10.4   940.1    0.00       0    95.5
 244   21:50   86.4    12    4.2   199     10.7   940.0    0.00       0    95.3
 244   22:00   86.4    12    5.1   206     10.5   940.1    0.00       0    95.0
 244   22:10   86.1    12    3.4   197      8.0   940.1    0.00       0    94.8
 244   22:20   85.6    12    4.4   188      8.2   940.1    0.00       0    94.6
 244   22:30   85.3    12    4.9   187      8.7   940.0    0.00       0    94.4
 244   22:40   85.1    12    3.8   196      7.1   940.1    0.00       0    94.3
 244   22:50   85.0    12    5.2   186      9.0   940.1    0.00       0    94.1
 244   23:00   84.6    12    5.4   179     10.9   940.2    0.00       0    93.9
 244   23:10   84.2    12    6.4   186     11.0   940.2    0.00       0    93.7
 244   23:20   84.0    12    6.5   181     12.4   940.2    0.00       0    93.5
 244   23:30   83.6    13    6.6   183     13.6   940.3    0.00       0    93.3
 244   23:40   83.1    13    8.2   188     16.2   940.5    0.00       0    93.1
 244   23:50   83.0    13    9.4   186     18.9   940.6    0.00       0    92.9
 245    0:00   82.9    12    8.5   187     17.8   940.6    0.00       0    92.7
 245    0:10   83.0    12    8.5   184     19.8   940.5    0.00       0    92.6
 245    0:20   82.7    13    7.4   185     17.0   940.6    0.00       0    92.4
 245    0:30   82.1    13    7.8   194     14.8   940.5    0.00       0    92.3
 245    0:40   81.9    13    7.7   190     17.9   940.5    0.00       0    92.1
 245    0:50   81.6    13    8.0   191     14.1   940.5    0.00       0    92.0
 245    1:00   81.6    13    7.5   186     13.3   940.5    0.00       0    91.8
 245    1:10   81.4    13    6.5   194     11.5   940.7    0.00       0    91.7
 245    1:20   81.1    13    6.6   185     14.5   940.7    0.00       0    91.5
 245    1:30   80.7    14    5.0   186     11.1   940.8    0.00       0    91.5
 245    1:40   80.5    14    4.9   204     10.5   940.9    0.00       0    91.4
 245    1:50   80.3    14    6.7   183     11.9   940.7    0.00       0    91.2
 245    2:00   80.1    14    7.2   197     15.0   940.7    0.00       0    91.1
 245    2:10   79.9    14   10.4   184     17.5   940.5    0.00       0    90.8
 245    2:20   79.5    14    8.4   188     15.6   940.4    0.00       0    90.7
 245    2:30   79.5    14    7.7   188     13.8   940.4    0.00       0    90.5
 245    2:40   79.7    13    5.3   182     15.2   940.4    0.00       0    90.4
 245    2:50   79.7    13    3.3   189      9.6   940.6    0.00       0    90.3
 245    3:00   79.4    13    3.1   170      8.7   940.6    0.00       0    90.2
 245    3:10   78.9    13    1.9   155      7.4   940.7    0.00       0    90.2
 245    3:20   78.9    13    2.2   194      7.7   940.7    0.00       0    90.1
 245    3:30   79.0    13    3.3   178      9.5   940.6    0.00       0    90.0
 245    3:40   78.9    13    1.5   145      7.5   940.8    0.00       0    89.9
 245    3:50   78.2    14    1.9   151      9.3   940.8    0.00       0    89.7
 245    4:00   78.5    13    2.6   164      8.6   940.8    0.00       0    89.6
 245    4:10   78.4    13    2.6   170      6.4   940.8    0.00       0    89.5
 245    4:20   78.2    13    2.7   172      9.9   940.9    0.00       0    89.3
 245    4:30   78.1    13    1.8   148      7.7   941.0    0.00       0    89.2
 245    4:40   77.9    13    2.0   201      6.7   941.0    0.00       0    89.0
 245    4:50   78.4    13    5.2   184     12.6   940.9    0.00       0    88.9
 245    5:00   78.0    13    5.5   178     12.7   941.0    0.00       0    88.7
 245    5:10   77.8    13    6.5   174     12.8   941.1    0.00       1    88.5
 245    5:20   77.3    13    5.2   183     11.2   941.1    0.00       4    88.4
 245    5:30   77.1    13    3.7   178      9.1   941.3    0.00       7    88.3
 245    5:40   77.1    13    3.0   170      7.7   941.4    0.00      11    88.2
 245    5:50   77.0    14    2.7   166      5.2   941.5    0.00      13    88.1
 245    6:00   77.2    13    3.2   169      9.7   941.5    0.00      15    88.0
 245    6:10   77.7    13    4.4   172      9.3   941.6    0.00      17    87.9
 245    6:20   78.2    13    5.3   180     12.8   941.6    0.00      18    87.8
 245    6:30   78.3    13    6.1   179     16.4   941.6    0.00      20    87.6
 245    6:40   78.9    13    6.3   193     13.4   941.5    0.00      21    87.5
 245    6:50   79.3    13    6.3   182     17.3   941.5    0.00      21    87.4
 245    7:00   79.7    13    6.4   190     13.2   941.6    0.00      22    87.3
 245    7:10   80.2    13    6.9   192     13.3   941.6    0.00      23    87.2
 245    7:20   80.7    13    6.9   186     12.7   941.7    0.00      24    87.2
 245    7:30   81.3    12    6.2   190     11.7   941.7    0.00      25    87.1
 245    7:40   81.8    12    6.1   194     13.5   941.9    0.00      27    87.1
 245    7:50   82.6    12    4.3   212     10.3   942.1    0.00      30    87.2
 245    8:00   82.8    12    5.1   200     11.5   942.1    0.00      34    87.1
 245    8:10   83.3    12    5.1   202     11.9   942.0    0.00      64    87.1
 245    8:20   83.7    12    6.0   186     16.7   942.0    0.00      54    87.1
 245    8:30   83.8    11    6.7   188     14.8   942.1    0.00     147    87.1
 245    8:40   84.2    11    6.6   184     15.4   942.2    0.00     123    87.1
 245    8:50   84.8    11    6.6   189     11.3   942.2    0.00     123    87.1
 245    9:00   85.6    10    5.1   198     10.7   942.3    0.00     158    87.2
 245    9:10   85.7    10    5.9   188     11.2   942.4    0.00     307    87.2
 245    9:20   86.2    10    5.5   188     11.4   942.3    0.00     596    87.3
 245    9:30   86.8    10    5.8   189     12.0   942.2    0.00     732    87.3
 245    9:40   87.4    10    8.2   175     17.0   942.1    0.00     755    87.4
 245    9:50   88.2     9    9.6   175     19.0   942.1    0.00     775    87.7
 245   10:00   88.6     9    9.8   183     18.6   942.0    0.00     794    88.0
 245   10:10   89.2     8    9.2   178     20.7   942.0    0.00     812    88.5
 245   10:20   89.5     9    9.5   178     17.5   942.0    0.00     828    89.1
 245   10:30   89.5     9    8.7   188     15.6   942.1    0.00     840    89.8
 245   10:40   89.7     9    8.1   191     17.0   942.1    0.00     855    90.6
 245   10:50   90.4     9    7.9   180     15.6   942.1    0.00     865    91.3
 245   11:00   90.2     9    8.6   187     15.6   942.0    0.00     874    92.1
 245   11:10   90.7     9    8.8   182     18.7   941.7    0.00     881    92.8
 245   11:20   91.1     8    8.7   184     18.6   941.6    0.00     887    93.5
 245   11:30   92.0     8    7.8   189     18.0   941.6    0.00     892    94.2
 245   11:40   92.3     8    7.2   176     15.1   941.5    0.00     896    94.9
 245   11:50   92.2     8    8.7   188     19.6   941.3    0.00     897    95.5
 245   12:00   92.6     8    8.8   173     16.7   941.1    0.00     900    96.2
 245   12:10   92.7     7    8.7   183     15.4   941.0    0.00     898    96.8
 245   12:20   93.5     7    7.0   202     16.0   940.8    0.00     893    97.3
 245   12:30   93.5     7    7.8   192     16.4   940.8    0.00     886    97.9
 245   12:40   93.5     7    8.3   185     15.1   940.6    0.00     879    98.4
 245   12:50   94.1     7    8.3   181     20.7   940.5    0.00     871    99.0
 245   13:00   94.0     7    8.3   175     20.4   940.4    0.00     859    99.5
 245   13:10   95.2     7    8.0   182     18.2   940.2    0.00     847    100.0
 245   13:20   94.4     7    8.0   184     15.9   940.2    0.00     831    100.4
 245   13:30   95.3     7    6.2   191     12.5   940.0    0.00     817    100.9
 245   13:40   94.9     7    7.7   185     14.0   939.8    0.00     801    101.3
 245   13:50   94.8     7    7.9   183     14.6   939.6    0.00     783    101.7
 245   14:00   94.5     7    8.5   189     21.1   939.5    0.00     763    102.1
 245   14:10   94.5     7    9.0   178     17.5   939.4    0.00     743    102.4
 245   14:20   94.4     7    8.7   191     17.2   939.4    0.00     720    102.7
 245   14:30   94.7     7    8.5   185     16.0   939.3    0.00     696    102.8
 245   14:40   94.4     7    8.9   191     18.9   939.2    0.00     670    102.9
 245   14:50   94.6     7    8.4   185     16.1   939.0    0.00     644    102.8
 245   15:00   95.1     7    6.6   191     13.7   938.9    0.00     615    102.8
 245   15:10   95.4     7    7.8   181     14.8   938.8    0.00     586    102.7
 245   15:20   94.5     7    7.5   192     17.0   938.8    0.00     537    102.5
 245   15:30   94.5     7    6.9   193     17.3   938.8    0.00     524    102.3
 245   15:40   94.4     8    7.0   182     13.2   938.7    0.00     482    102.1
 245   15:50   94.2     7    7.9   189     15.4   938.8    0.00     452    101.8
 245   16:00   94.2     8    8.2   187     15.2   938.6    0.00     393    101.5
 245   16:10   93.3     8    7.6   186     16.7   938.6    0.00     222    101.2
 245   16:20   93.0     8    7.4   192     13.6   938.6    0.00     301    100.9
 245   16:30   93.3     8    7.6   193     14.5   938.6    0.00     336    100.6
 245   16:40   93.4     8    7.3   194     15.2   938.6    0.00     291    100.3
 245   16:50   92.8     8    9.4   183     15.9   938.6    0.00     252    100.0
 245   17:00   92.6     8    8.9   186     16.4   938.6    0.00     218    99.6

Return to Las Vegas, Nevada graphs page.


Western Regional Climate Center,wrcc@dri.edu